Time;durP1;ratioP1;P1;durP2;ratioP2;P2;SDS_P1;SDS_P2;PMS_P1;PMS_P2;Temp;Humidity;BMP_temperature;BMP_pressure;BME280_temperature;BME280_humidity;BME280_pressure;Samples;Min_cycle;Max_cycle;Signal;HPM_P1;HPM_P2
2022/08/12 00:44:29;;;;;;;3.78;1.50;;;27.40;36.90;;;;;;6185258;23;20040;-67
2022/08/12 00:46:58;;;;;;;3.10;1.60;;;27.40;36.90;;;;;;6158931;23;20064;-67
2022/08/12 00:49:26;;;;;;;4.32;1.60;;;27.40;37.30;;;;;;6185127;23;20440;-68
2022/08/12 00:52:10;;;;;;;6.20;1.25;;;27.40;37.70;;;;;;6184644;23;20012;-67
2022/08/12 00:54:36;;;;;;;7.50;1.40;;;27.30;37.40;;;;;;6185475;23;20009;-68
2022/08/12 00:57:05;;;;;;;8.80;1.67;;;27.30;37.10;;;;;;6185256;23;20293;-71
2022/08/12 00:59:33;;;;;;;2.58;1.58;;;27.40;37.20;;;;;;6181890;23;20013;-68
2022/08/12 01:02:01;;;;;;;4.00;1.77;;;27.30;37.30;;;;;;6182332;23;20068;-67
2022/08/12 01:12:43;;;;;;;5.82;1.48;;;27.30;38.20;;;;;;6184729;23;20439;-68
2022/08/12 01:15:12;;;;;;;3.83;1.55;;;27.30;38.30;;;;;;6184817;23;20080;-67
2022/08/12 01:17:41;;;;;;;2.10;1.40;;;27.30;38.60;;;;;;6184668;23;20328;-67
2022/08/12 01:20:11;;;;;;;2.35;1.30;;;27.30;38.40;;;;;;6184840;23;20001;-76
2022/08/12 01:23:12;;;;;;;4.10;1.33;;;27.20;38.60;;;;;;6184846;23;20087;-67
2022/08/12 01:25:43;;;;;;;2.88;1.67;;;27.20;38.40;;;;;;6186724;23;20008;-66
2022/08/12 01:28:13;;;;;;;8.57;1.60;;;27.20;38.30;;;;;;6185887;23;20013;-68
2022/08/12 01:30:41;;;;;;;4.10;1.27;;;27.30;38.50;;;;;;6186224;23;20005;-67
2022/08/12 01:33:13;;;;;;;2.22;1.20;;;27.20;38.60;;;;;;6185835;23;20001;-77
2022/08/12 01:35:43;;;;;;;5.63;1.33;;;27.20;38.70;;;;;;6186011;23;20008;-67
2022/08/12 01:38:12;;;;;;;3.75;1.20;;;27.20;39.00;;;;;;6187103;23;20104;-67
2022/08/12 01:40:43;;;;;;;2.78;1.42;;;27.20;39.10;;;;;;6186541;23;20098;-73
2022/08/12 01:43:14;;;;;;;4.00;1.20;;;27.10;39.10;;;;;;6186496;23;20080;-77
2022/08/12 01:45:47;;;;;;;2.75;1.42;;;27.10;39.20;;;;;;6186791;23;20012;-67
2022/08/12 01:48:13;;;;;;;3.85;1.58;;;27.20;39.40;;;;;;6186359;23;20075;-68
2022/08/12 01:51:30;;;;;;;3.95;1.50;;;27.10;39.50;;;;;;6186678;23;20413;-67
2022/08/12 01:54:03;;;;;;;4.65;1.30;;;27.10;39.60;;;;;;6042592;23;20404;-68
2022/08/12 01:56:42;;;;;;;3.83;1.60;;;27.10;39.70;;;;;;6181357;23;20019;-68
2022/08/12 02:01:57;;;;;;;3.65;1.42;;;27.10;39.80;;;;;;6186442;23;20067;-68
2022/08/12 02:27:55;;;;;;;6.78;1.42;;;26.80;40.40;;;;;;6181894;23;20087;-69
2022/08/12 02:30:30;;;;;;;3.15;1.40;;;26.80;40.10;;;;;;6156312;23;20032;-69
2022/08/12 02:32:59;;;;;;;3.97;1.40;;;26.80;40.10;;;;;;6156622;23;20016;-68
2022/08/12 02:35:29;;;;;;;3.97;1.38;;;26.70;40.40;;;;;;6156088;23;20017;-68
2022/08/12 02:38:01;;;;;;;4.10;1.30;;;26.70;40.80;;;;;;6156240;23;19997;-68
2022/08/12 02:40:28;;;;;;;2.25;1.42;;;26.70;41.10;;;;;;6156285;23;20079;-68
2022/08/12 02:43:02;;;;;;;2.60;1.40;;;26.60;41.20;;;;;;6156217;23;20317;-68
2022/08/12 02:45:46;;;;;;;7.03;1.42;;;26.60;41.10;;;;;;6156021;23;20064;-68
2022/08/12 02:48:23;;;;;;;4.85;1.55;;;26.60;41.10;;;;;;6156590;23;20018;-68
2022/08/12 02:50:51;;;;;;;3.70;1.70;;;26.60;41.10;;;;;;6156005;23;20008;-67
2022/08/12 02:53:17;;;;;;;6.65;1.77;;;26.60;41.10;;;;;;6156437;23;20072;-68
2022/08/12 02:55:46;;;;;;;6.00;1.60;;;26.60;41.00;;;;;;6155644;23;20008;-68
2022/08/12 02:58:13;;;;;;;7.40;1.75;;;26.60;41.00;;;;;;6156148;23;20394;-68
2022/08/12 03:00:40;;;;;;;4.28;1.50;;;26.50;40.50;;;;;;6156312;23;20340;-68
2022/08/12 03:03:08;;;;;;;7.97;1.83;;;26.50;40.40;;;;;;6155824;23;20040;-68
2022/08/12 03:05:38;;;;;;;2.47;1.45;;;26.50;40.70;;;;;;6156520;23;20344;-69
2022/08/12 03:08:10;;;;;;;4.10;1.40;;;26.50;40.90;;;;;;6156108;23;20025;-68
2022/08/12 03:10:41;;;;;;;6.60;1.60;;;26.50;40.90;;;;;;6156058;23;20040;-68
2022/08/12 03:13:07;;;;;;;9.20;1.80;;;26.50;40.70;;;;;;6156090;23;20424;-68
2022/08/12 03:15:34;;;;;;;4.65;1.52;;;26.50;40.50;;;;;;6156238;23;20013;-68
2022/08/12 03:18:09;;;;;;;2.20;1.33;;;26.50;40.50;;;;;;6156077;23;20303;-68
2022/08/12 03:20:42;;;;;;;2.28;1.30;;;26.50;40.60;;;;;;6156110;23;20018;-68
2022/08/12 03:23:12;;;;;;;2.83;1.50;;;26.50;40.50;;;;;;6156211;23;20009;-68
2022/08/12 03:25:42;;;;;;;4.43;1.65;;;26.50;40.40;;;;;;6155817;23;20009;-68
2022/08/12 03:28:10;;;;;;;7.07;1.30;;;26.50;40.40;;;;;;6157588;23;20113;-69
2022/08/12 03:30:38;;;;;;;5.03;1.50;;;26.50;40.70;;;;;;6185635;23;20013;-68
2022/08/12 03:33:05;;;;;;;6.95;1.65;;;26.50;40.60;;;;;;6185547;23;20336;-69
2022/08/12 03:35:32;;;;;;;5.55;1.50;;;26.50;40.90;;;;;;6185596;23;20008;-68
2022/08/12 03:38:08;;;;;;;10.75;1.30;;;26.50;40.30;;;;;;6185872;23;20040;-77
2022/08/12 04:00:45;;;;;;;6.60;1.33;;;26.30;38.20;;;;;;6185382;23;20347;-68
2022/08/12 04:05:56;;;;;;;3.92;1.55;;;26.30;38.20;;;;;;6185269;23;20066;-67
2022/08/12 04:08:24;;;;;;;4.55;1.33;;;26.30;38.20;;;;;;6185460;23;20088;-68
2022/08/12 04:13:35;;;;;;;8.52;1.52;;;26.30;38.50;;;;;;6184974;23;20086;-68
2022/08/12 04:16:06;;;;;;;3.08;1.70;;;26.30;38.70;;;;;;6185573;23;20028;-66
2022/08/12 04:18:32;;;;;;;7.55;1.45;;;26.30;38.80;;;;;;6185227;23;20018;-68
2022/08/12 04:20:58;;;;;;;4.55;1.40;;;26.20;38.70;;;;;;6185026;23;20001;-68
2022/08/12 04:23:25;;;;;;;2.63;1.50;;;26.20;39.00;;;;;;6184955;23;20001;-68
2022/08/12 04:25:51;;;;;;;4.72;1.60;;;26.20;39.90;;;;;;6185424;23;20001;-68
2022/08/12 04:28:27;;;;;;;5.40;1.40;;;26.20;41.00;;;;;;6184663;23;20343;-68
2022/08/12 04:30:55;;;;;;;6.65;1.60;;;26.20;41.40;;;;;;6185173;23;20072;-67
2022/08/12 04:33:21;;;;;;;3.42;1.45;;;26.10;42.50;;;;;;6185189;23;20016;-68
2022/08/12 04:35:48;;;;;;;8.63;1.70;;;26.10;42.50;;;;;;6185153;23;20324;-67
2022/08/12 04:38:16;;;;;;;4.70;1.50;;;26.10;42.10;;;;;;6184912;23;20588;-68
2022/08/12 04:40:45;;;;;;;6.85;1.40;;;26.10;42.00;;;;;;6185044;23;20492;-77
2022/08/12 04:43:13;;;;;;;5.25;1.40;;;26.00;41.90;;;;;;6184989;23;20009;-68
2022/08/12 04:45:39;;;;;;;3.22;1.60;;;26.00;41.40;;;;;;6185263;23;20013;-69
2022/08/12 04:48:05;;;;;;;2.08;1.40;;;26.00;41.10;;;;;;6184941;23;20112;-67
2022/08/12 04:50:32;;;;;;;7.03;1.30;;;26.00;41.10;;;;;;6185399;23;20007;-68
2022/08/12 04:53:02;;;;;;;5.25;1.52;;;26.00;41.10;;;;;;6185178;23;20001;-69
2022/08/12 04:55:28;;;;;;;3.60;1.70;;;26.00;41.00;;;;;;6185016;23;20009;-68
2022/08/12 04:57:55;;;;;;;4.15;1.48;;;26.00;40.90;;;;;;6186089;23;20059;-77
2022/08/12 05:00:21;;;;;;;7.18;1.50;;;26.00;40.90;;;;;;6186998;23;20004;-68
2022/08/12 05:02:46;;;;;;;6.85;1.60;;;26.00;41.00;;;;;;6187157;23;20005;-69
2022/08/12 05:05:21;;;;;;;2.90;1.42;;;26.00;41.20;;;;;;6186967;23;20316;-70
2022/08/12 05:07:47;;;;;;;6.65;1.70;;;26.00;41.70;;;;;;6186566;23;20016;-68
2022/08/12 05:10:14;;;;;;;4.00;1.55;;;26.00;41.80;;;;;;6186985;23;20023;-68
2022/08/12 05:12:46;;;;;;;5.05;1.60;;;26.00;41.90;;;;;;6186616;23;20059;-70
2022/08/12 05:15:12;;;;;;;2.50;1.42;;;26.10;41.80;;;;;;6186629;23;20024;-72
2022/08/12 05:17:39;;;;;;;4.30;1.60;;;26.10;41.80;;;;;;6186637;23;20008;-69
2022/08/12 05:20:08;;;;;;;3.33;1.40;;;26.10;41.70;;;;;;6186660;23;20429;-68
2022/08/12 05:22:34;;;;;;;5.55;1.42;;;26.10;41.40;;;;;;6186717;23;20379;-69
2022/08/12 05:25:00;;;;;;;11.50;1.70;;;26.10;41.40;;;;;;6186831;23;20011;-69
2022/08/12 05:27:26;;;;;;;3.30;1.63;;;26.20;41.20;;;;;;6186623;23;20033;-69
2022/08/12 05:29:52;;;;;;;1.77;1.17;;;26.20;41.00;;;;;;6186609;23;20025;-73
2022/08/12 05:32:19;;;;;;;4.20;1.60;;;26.20;40.80;;;;;;6186164;23;20072;-70
2022/08/12 05:34:49;;;;;;;2.75;1.40;;;26.10;40.80;;;;;;6186594;23;20024;-69
2022/08/12 05:37:15;;;;;;;30.02;2.88;;;26.10;41.10;;;;;;6186546;23;20144;-69
2022/08/12 05:39:41;;;;;;;6.75;1.60;;;26.10;41.30;;;;;;6186475;23;20477;-69
2022/08/12 05:42:08;;;;;;;9.07;1.52;;;26.00;41.40;;;;;;6186659;23;20001;-69
2022/08/12 05:44:34;;;;;;;3.88;1.30;;;26.00;41.60;;;;;;6186538;23;20470;-69
2022/08/12 05:47:00;;;;;;;3.40;1.63;;;26.00;41.50;;;;;;6186597;23;20007;-70
2022/08/12 05:49:25;;;;;;;6.90;1.60;;;26.00;41.70;;;;;;6186407;23;20052;-69
2022/08/12 05:51:51;;;;;;;7.93;1.58;;;26.00;41.90;;;;;;6186573;23;19998;-69
2022/08/12 05:54:17;;;;;;;2.92;1.52;;;26.00;41.90;;;;;;6186470;23;20012;-73
2022/08/12 05:56:44;;;;;;;4.20;1.40;;;26.00;41.90;;;;;;6186208;23;20009;-74
2022/08/12 05:59:11;;;;;;;18.98;2.13;;;26.00;41.80;;;;;;6186710;23;20019;-70
2022/08/12 06:01:37;;;;;;;4.10;1.45;;;26.10;41.70;;;;;;6186237;23;20047;-70
2022/08/12 06:04:04;;;;;;;5.60;1.40;;;26.10;41.50;;;;;;6186528;23;20005;-69
2022/08/12 06:06:40;;;;;;;4.43;1.48;;;26.20;41.50;;;;;;6186575;23;20113;-68
2022/08/12 06:09:08;;;;;;;3.95;1.40;;;26.20;41.50;;;;;;6185804;23;20071;-68
2022/08/12 06:11:34;;;;;;;10.43;1.60;;;26.20;41.40;;;;;;6186672;23;20316;-68
2022/08/12 06:14:00;;;;;;;2.47;1.40;;;26.30;41.30;;;;;;6186514;23;20007;-70
2022/08/12 06:16:26;;;;;;;3.55;1.50;;;26.30;41.30;;;;;;6186251;23;20007;-68
2022/08/12 06:18:53;;;;;;;4.20;1.40;;;26.30;41.30;;;;;;6185973;23;20040;-68
2022/08/12 06:21:20;;;;;;;20.60;1.95;;;26.30;41.40;;;;;;6186041;23;20080;-69
2022/08/12 06:23:47;;;;;;;7.32;1.45;;;26.40;41.40;;;;;;6186031;23;20009;-69
2022/08/12 06:26:15;;;;;;;2.78;1.30;;;26.40;41.40;;;;;;6186429;23;20001;-69
2022/08/12 06:28:49;;;;;;;3.40;1.33;;;26.40;41.00;;;;;;6185755;23;20072;-69
2022/08/12 06:31:16;;;;;;;3.20;1.20;;;26.50;40.90;;;;;;6185957;23;20005;-69
2022/08/12 06:33:46;;;;;;;15.18;1.67;;;26.50;40.30;;;;;;6185875;23;20063;-69
2022/08/12 06:36:15;;;;;;;3.03;1.13;;;26.50;40.00;;;;;;6186230;23;20451;-69
2022/08/12 06:38:42;;;;;;;15.95;1.95;;;26.50;39.70;;;;;;6186074;23;20055;-67
2022/08/12 06:43:53;;;;;;;9.57;1.17;;;26.60;39.70;;;;;;6185804;23;20020;-75
2022/08/12 06:46:24;;;;;;;2.38;1.13;;;26.60;39.60;;;;;;6186023;23;20001;-72
2022/08/12 06:48:55;;;;;;;2.58;1.00;;;26.70;39.70;;;;;;6186001;23;20092;-68
2022/08/12 06:51:22;;;;;;;26.73;2.45;;;26.70;38.90;;;;;;6185993;23;20008;-71
2022/08/12 06:53:48;;;;;;;7.70;1.10;;;26.80;38.50;;;;;;6185721;23;20458;-73
2022/08/12 06:56:14;;;;;;;7.63;0.95;;;26.80;38.30;;;;;;6185771;23;20080;-75
2022/08/12 06:58:39;;;;;;;1.25;0.70;;;26.80;38.10;;;;;;6185856;23;20083;-67
2022/08/12 07:01:06;;;;;;;3.05;0.63;;;26.90;37.40;;;;;;6185764;23;20004;-68
2022/08/12 07:03:32;;;;;;;1.58;0.73;;;26.80;36.90;;;;;;6183760;23;20018;-68
2022/08/12 07:06:00;;;;;;;8.20;1.10;;;26.90;37.00;;;;;;6184873;23;20001;-68
2022/08/12 07:08:28;;;;;;;4.05;1.15;;;26.90;36.40;;;;;;6184975;23;20013;-67
2022/08/12 07:10:59;;;;;;;1.23;0.77;;;26.90;36.20;;;;;;6185496;23;20321;-75
2022/08/12 07:13:36;;;;;;;2.50;0.80;;;26.90;36.30;;;;;;6184601;23;20015;-68
2022/08/12 07:16:02;;;;;;;1.58;0.73;;;27.00;35.90;;;;;;6184722;23;20004;-68
2022/08/12 07:18:31;;;;;;;2.85;0.80;;;27.00;36.00;;;;;;6185233;23;20019;-67
2022/08/12 07:21:00;;;;;;;3.35;0.85;;;27.00;36.00;;;;;;6185088;23;20428;-68
2022/08/12 07:23:26;;;;;;;0.63;0.60;;;27.00;36.10;;;;;;6185369;23;20019;-67
2022/08/12 07:25:53;;;;;;;1.23;0.88;;;27.00;36.20;;;;;;6185301;23;19997;-69
2022/08/12 07:28:26;;;;;;;1.00;0.80;;;27.00;36.00;;;;;;6184714;23;20092;-67
2022/08/12 07:30:54;;;;;;;0.63;0.60;;;27.00;35.80;;;;;;6185193;23;20320;-68
2022/08/12 07:33:23;;;;;;;4.53;0.88;;;27.10;36.00;;;;;;6184826;23;20336;-66
2022/08/12 07:35:51;;;;;;;4.45;0.93;;;27.10;36.20;;;;;;6185302;23;20055;-67
2022/08/12 07:38:32;;;;;;;1.65;0.68;;;27.10;36.20;;;;;;6184833;23;20013;-75
2022/08/12 07:40:58;;;;;;;3.08;0.80;;;27.00;36.20;;;;;;6184986;23;20436;-71
2022/08/12 07:43:26;;;;;;;2.50;1.13;;;27.00;36.20;;;;;;6185321;23;20088;-66
2022/08/12 07:45:53;;;;;;;2.47;1.00;;;27.00;36.30;;;;;;6185192;23;20017;-68
2022/08/12 07:48:20;;;;;;;1.33;0.90;;;27.00;36.30;;;;;;6185118;23;20021;-68
2022/08/12 07:50:45;;;;;;;2.83;1.00;;;27.00;36.50;;;;;;6184880;23;20001;-66
2022/08/12 07:53:11;;;;;;;1.48;1.20;;;27.00;36.60;;;;;;6184954;23;20087;-66
2022/08/12 07:55:36;;;;;;;1.88;0.82;;;27.10;36.70;;;;;;6184941;23;20009;-66
2022/08/12 07:58:03;;;;;;;1.48;0.80;;;27.10;36.70;;;;;;6184587;23;20041;-67
2022/08/12 08:00:31;;;;;;;2.47;0.90;;;27.20;36.80;;;;;;6140455;23;20100;-66
2022/08/12 08:02:58;;;;;;;0.85;0.73;;;27.20;36.80;;;;;;6093653;23;20037;-68
2022/08/12 08:05:26;;;;;;;3.95;1.02;;;27.30;36.80;;;;;;6096901;23;20070;-68
2022/08/12 08:07:56;;;;;;;2.22;0.90;;;27.30;36.70;;;;;;6096644;23;20089;-67
2022/08/12 08:10:22;;;;;;;4.05;0.80;;;27.40;36.70;;;;;;6097095;23;20014;-68
2022/08/12 08:12:54;;;;;;;5.25;1.00;;;27.50;36.50;;;;;;6096778;23;20436;-73
2022/08/12 08:15:29;;;;;;;4.15;1.20;;;27.60;36.30;;;;;;6097033;23;20134;-68
2022/08/12 08:18:01;;;;;;;6.20;1.55;;;27.60;36.10;;;;;;6096808;23;20019;-67
2022/08/12 08:20:33;;;;;;;1.90;0.90;;;27.70;36.00;;;;;;6097025;23;20106;-72
2022/08/12 08:23:05;;;;;;;1.77;0.80;;;27.70;35.90;;;;;;6096886;23;20050;-69
2022/08/12 08:25:32;;;;;;;2.97;1.00;;;27.80;35.90;;;;;;6096924;23;20034;-68
2022/08/12 08:28:03;;;;;;;7.13;0.90;;;27.90;35.80;;;;;;6096482;23;20019;-66
2022/08/12 08:30:31;;;;;;;9.38;2.60;;;27.90;35.70;;;;;;6068097;23;20010;-68
2022/08/12 08:32:57;;;;;;;6.57;1.50;;;28.10;36.30;;;;;;6069003;23;20058;-68
2022/08/12 08:35:24;;;;;;;3.30;0.95;;;28.10;36.80;;;;;;6070058;23;20438;-72
2022/08/12 08:37:50;;;;;;;1.80;0.88;;;28.10;36.60;;;;;;6069925;23;20099;-68
2022/08/12 08:43:03;;;;;;;7.50;1.00;;;28.20;36.00;;;;;;6069688;23;20354;-66
2022/08/12 08:45:29;;;;;;;2.58;1.15;;;28.30;35.90;;;;;;6069620;23;20006;-66
2022/08/12 08:47:55;;;;;;;3.25;0.98;;;28.30;35.80;;;;;;6069458;23;20342;-72
2022/08/12 08:50:21;;;;;;;1.17;1.00;;;28.30;35.60;;;;;;6068930;23;20014;-68
2022/08/12 08:52:47;;;;;;;1.35;0.85;;;28.40;35.70;;;;;;6069827;23;20061;-69
2022/08/12 08:55:15;;;;;;;2.80;0.77;;;28.50;35.40;;;;;;6069474;23;20030;-67
2022/08/12 08:57:43;;;;;;;1.70;1.02;;;28.50;35.10;;;;;;6070073;23;20044;-67
2022/08/12 09:00:14;;;;;;;3.40;0.90;;;28.50;35.10;;;;;;6069769;23;20082;-71
2022/08/12 09:02:40;;;;;;;4.40;0.80;;;28.60;34.80;;;;;;6069636;23;20379;-70
2022/08/12 09:05:06;;;;;;;2.97;0.80;;;28.70;34.50;;;;;;6069745;23;20018;-67
2022/08/12 09:07:46;;;;;;;2.53;0.95;;;28.70;34.60;;;;;;6069532;23;20007;-68
2022/08/12 09:10:15;;;;;;;1.63;1.00;;;28.80;34.40;;;;;;6070664;23;20066;-67
2022/08/12 09:15:27;;;;;;;1.42;0.60;;;28.80;34.00;;;;;;6070212;23;20098;-68
2022/08/12 09:17:54;;;;;;;1.48;0.77;;;28.80;33.50;;;;;;6068692;23;20007;-69
2022/08/12 09:20:31;;;;;;;2.00;0.60;;;28.80;33.40;;;;;;6069072;23;20094;-68
2022/08/12 09:22:57;;;;;;;3.05;0.80;;;28.80;33.50;;;;;;6069314;23;20011;-68
2022/08/12 09:25:30;;;;;;;2.25;0.80;;;28.80;33.40;;;;;;6069462;23;20330;-68
2022/08/12 09:27:59;;;;;;;1.10;0.77;;;28.80;33.30;;;;;;6069410;23;20338;-68
2022/08/12 09:30:26;;;;;;;1.45;0.80;;;28.80;33.10;;;;;;6069258;23;20014;-68
2022/08/12 09:32:53;;;;;;;2.72;0.60;;;28.80;33.10;;;;;;6069315;23;20423;-74
2022/08/12 09:35:22;;;;;;;1.95;0.73;;;28.70;33.00;;;;;;6069323;23;20018;-69
2022/08/12 09:37:49;;;;;;;2.25;0.82;;;28.70;32.80;;;;;;6069573;23;20010;-69
2022/08/12 09:40:17;;;;;;;4.95;1.08;;;28.70;33.40;;;;;;6069329;23;20013;-68
2022/08/12 09:45:27;;;;;;;4.10;1.10;;;28.60;32.50;;;;;;6068829;23;20391;-67
2022/08/12 09:47:54;;;;;;;0.82;0.68;;;28.70;32.70;;;;;;6069232;23;20015;-68
2022/08/12 09:50:20;;;;;;;3.10;1.10;;;28.70;33.00;;;;;;6068829;23;20342;-75
2022/08/12 09:52:51;;;;;;;4.05;1.02;;;28.70;33.10;;;;;;6068211;23;20007;-68
2022/08/12 09:55:18;;;;;;;3.55;1.15;;;28.70;33.10;;;;;;6068304;23;20042;-68
2022/08/12 09:57:44;;;;;;;8.45;1.55;;;28.70;33.00;;;;;;6065935;23;20078;-66
2022/08/12 10:00:11;;;;;;;3.22;1.20;;;28.70;33.10;;;;;;6066089;23;20023;-68
2022/08/12 10:02:37;;;;;;;1.60;1.20;;;28.70;33.30;;;;;;6066671;23;19999;-66
2022/08/12 10:05:08;;;;;;;2.30;1.33;;;28.60;33.10;;;;;;6068821;23;20637;-67
2022/08/12 10:07:34;;;;;;;5.90;0.98;;;28.70;33.10;;;;;;6069022;23;20441;-67
2022/08/12 10:09:59;;;;;;;5.55;1.23;;;28.70;33.30;;;;;;6067320;23;20368;-69
2022/08/12 10:15:11;;;;;;;4.80;1.10;;;28.70;33.80;;;;;;6066694;23;20109;-71
2022/08/12 10:17:37;;;;;;;1.73;0.95;;;28.60;33.80;;;;;;6069407;23;20073;-69
2022/08/12 10:20:03;;;;;;;2.33;1.20;;;28.60;33.70;;;;;;6069070;23;20633;-74
2022/08/12 10:22:29;;;;;;;19.13;2.25;;;28.60;33.70;;;;;;6068803;23;20006;-71
2022/08/12 10:30:25;;;;;;;14.80;1.52;;;28.80;33.70;;;;;;6068870;23;20034;-68
2022/08/12 10:32:57;;;;;;;12.90;1.77;;;28.90;33.70;;;;;;6069071;23;20011;-69
2022/08/12 10:35:25;;;;;;;5.70;1.30;;;29.00;33.20;;;;;;6068907;23;20007;-67
2022/08/12 10:37:50;;;;;;;4.70;2.00;;;29.00;32.80;;;;;;6068708;23;20392;-68
2022/08/12 10:40:16;;;;;;;8.25;1.25;;;29.00;33.00;;;;;;6068609;23;20038;-74
2022/08/12 10:45:26;;;;;;;5.35;1.20;;;28.90;33.00;;;;;;6068570;23;20497;-70
2022/08/12 10:47:52;;;;;;;2.42;1.30;;;28.80;33.00;;;;;;6068733;23;20030;-73
2022/08/12 10:50:21;;;;;;;3.88;1.00;;;28.80;33.20;;;;;;6069088;23;20037;-71
2022/08/12 10:52:47;;;;;;;4.72;1.20;;;28.70;33.30;;;;;;6068932;23;20082;-71
2022/08/12 10:55:12;;;;;;;6.25;1.30;;;28.70;33.80;;;;;;6068360;23;20382;-68
2022/08/12 10:57:38;;;;;;;1.83;1.10;;;28.60;34.60;;;;;;6068657;23;20006;-67
2022/08/12 11:00:05;;;;;;;4.45;1.20;;;28.50;34.80;;;;;;6068792;23;20022;-74
2022/08/12 11:02:31;;;;;;;4.75;1.02;;;28.50;36.40;;;;;;6068273;23;20010;-68
2022/08/12 11:04:58;;;;;;;2.65;0.90;;;28.40;37.10;;;;;;6068576;23;20116;-72
2022/08/12 11:07:25;;;;;;;11.80;1.88;;;28.30;37.60;;;;;;6068442;23;20159;-66
2022/08/12 11:09:51;;;;;;;5.93;1.23;;;28.20;39.00;;;;;;6068032;23;20018;-74
2022/08/12 11:12:17;;;;;;;8.60;1.35;;;28.10;40.30;;;;;;6067944;23;20485;-68
2022/08/12 11:14:43;;;;;;;6.25;1.05;;;28.00;41.90;;;;;;6064359;23;20015;-70
2022/08/12 11:17:13;;;;;;;6.95;1.30;;;27.80;44.00;;;;;;6064995;23;20003;-74
2022/08/12 11:19:42;;;;;;;1.90;1.00;;;27.70;43.90;;;;;;6067946;23;20003;-73
2022/08/12 11:22:10;;;;;;;1.90;1.10;;;27.50;44.30;;;;;;6068442;23;20015;-69
2022/08/12 11:24:36;;;;;;;1.98;1.15;;;27.40;46.50;;;;;;6066316;23;20371;-71
2022/08/12 11:27:05;;;;;;;1.33;1.10;;;27.30;45.30;;;;;;6064965;23;20083;-71
2022/08/12 11:29:31;;;;;;;8.80;1.60;;;27.20;45.60;;;;;;6053132;23;20108;-67
2022/08/12 11:31:57;;;;;;;1.20;0.95;;;27.20;46.20;;;;;;6067029;23;20060;-67
2022/08/12 11:34:22;;;;;;;5.18;1.80;;;27.10;45.90;;;;;;6068405;23;20007;-69
2022/08/12 11:36:57;;;;;;;6.90;1.35;;;27.00;45.30;;;;;;6068113;23;20033;-72
2022/08/12 11:39:23;;;;;;;2.63;1.23;;;26.90;45.50;;;;;;6089509;23;20003;-67
2022/08/12 11:41:49;;;;;;;2.28;1.10;;;26.80;46.50;;;;;;6067923;23;20066;-75
2022/08/12 11:44:15;;;;;;;3.65;1.25;;;26.60;46.40;;;;;;6068022;23;20015;-74
2022/08/12 11:46:42;;;;;;;1.48;1.23;;;26.50;45.70;;;;;;6068067;23;20014;-67
2022/08/12 11:49:08;;;;;;;2.00;1.15;;;26.40;45.90;;;;;;6067402;23;20346;-67
2022/08/12 11:51:34;;;;;;;3.78;1.00;;;26.30;46.00;;;;;;6065005;23;20010;-67
2022/08/12 11:54:00;;;;;;;5.45;1.10;;;26.20;45.70;;;;;;6065182;23;20007;-77
2022/08/12 11:56:27;;;;;;;2.58;1.10;;;26.10;46.50;;;;;;6065575;23;19998;-67
2022/08/12 11:58:53;;;;;;;3.15;1.48;;;26.00;47.00;;;;;;6067836;23;20011;-70
2022/08/12 12:01:19;;;;;;;2.38;1.20;;;25.90;48.70;;;;;;6067933;23;20411;-76
2022/08/12 12:03:44;;;;;;;4.13;1.05;;;25.80;47.50;;;;;;6068186;23;20017;-73
2022/08/12 12:06:10;;;;;;;1.60;1.17;;;25.80;48.30;;;;;;6067769;23;20457;-73
2022/08/12 12:08:36;;;;;;;2.53;1.25;;;25.70;49.80;;;;;;6068116;23;20327;-75
2022/08/12 12:11:02;;;;;;;3.40;1.20;;;25.60;49.80;;;;;;6068195;23;20082;-77
2022/08/12 12:13:28;;;;;;;1.30;0.93;;;25.50;48.70;;;;;;6067938;23;20426;-78
2022/08/12 12:15:53;;;;;;;1.70;1.10;;;25.40;49.00;;;;;;6067984;23;20003;-77
2022/08/12 12:18:25;;;;;;;0.93;0.93;;;25.40;49.50;;;;;;6068245;23;20078;-76
2022/08/12 12:20:52;;;;;;;3.95;1.17;;;25.30;47.60;;;;;;6068058;23;20011;-68
2022/08/12 12:23:18;;;;;;;1.45;0.77;;;25.30;48.10;;;;;;6068097;23;20462;-67
2022/08/12 12:25:45;;;;;;;4.45;1.13;;;25.30;49.00;;;;;;6068463;23;20010;-67
2022/08/12 12:28:11;;;;;;;2.13;1.20;;;25.20;49.30;;;;;;6067738;23;20007;-67
2022/08/12 12:30:37;;;;;;;2.45;1.10;;;25.20;48.90;;;;;;6067980;23;20021;-67
2022/08/12 12:33:05;;;;;;;2.30;1.33;;;25.20;47.60;;;;;;6067608;23;20003;-68
2022/08/12 12:35:31;;;;;;;1.98;1.20;;;25.20;47.00;;;;;;6067686;23;20003;-74
2022/08/12 12:38:02;;;;;;;3.75;1.40;;;25.20;47.70;;;;;;6068123;23;20057;-67
2022/08/12 12:40:29;;;;;;;2.38;1.10;;;25.20;47.90;;;;;;6067800;23;20014;-78
2022/08/12 12:42:55;;;;;;;4.95;1.20;;;25.20;48.80;;;;;;6068099;23;20003;-67
2022/08/12 12:45:22;;;;;;;5.57;1.33;;;25.20;49.70;;;;;;6068273;23;20018;-68
2022/08/12 12:48:12;;;;;;;4.45;1.50;;;25.20;51.10;;;;;;6067945;23;20007;-68
2022/08/12 12:50:39;;;;;;;3.92;1.30;;;25.10;53.70;;;;;;6067985;23;20004;-77
2022/08/12 12:53:07;;;;;;;8.25;1.80;;;25.10;54.40;;;;;;6068091;23;20030;-74
2022/08/12 12:55:36;;;;;;;3.15;1.27;;;25.00;55.00;;;;;;6068164;23;20019;-72
2022/08/12 12:58:04;;;;;;;3.92;1.42;;;25.00;54.40;;;;;;6067938;23;20003;-73
2022/08/12 13:00:33;;;;;;;5.28;1.20;;;25.00;54.80;;;;;;6067828;23;20003;-74
2022/08/12 13:02:59;;;;;;;3.20;1.40;;;25.00;53.10;;;;;;6067711;23;20435;-67
2022/08/12 13:05:28;;;;;;;4.47;1.42;;;25.00;52.20;;;;;;6067691;23;20006;-67
2022/08/12 13:07:56;;;;;;;5.57;1.60;;;24.90;53.00;;;;;;6067823;23;20006;-68
2022/08/12 13:10:22;;;;;;;5.20;2.35;;;24.80;54.20;;;;;;6067260;23;20010;-67
2022/08/12 13:12:52;;;;;;;5.50;1.95;;;24.70;55.60;;;;;;6067586;23;20063;-73
2022/08/12 13:15:18;;;;;;;2.83;0.90;;;24.70;57.40;;;;;;6068127;23;20094;-70
2022/08/12 13:17:49;;;;;;;5.75;1.27;;;24.60;54.10;;;;;;6067596;23;20034;-70
2022/08/12 13:20:16;;;;;;;4.50;1.30;;;24.50;50.10;;;;;;6069522;23;20003;-68
2022/08/12 13:22:43;;;;;;;7.50;1.20;;;24.40;51.00;;;;;;6069501;23;20003;-67
2022/08/12 13:25:10;;;;;;;4.50;1.30;;;24.30;53.70;;;;;;6068723;23;20513;-68
2022/08/12 13:27:44;;;;;;;6.28;1.17;;;24.20;53.10;;;;;;6067865;23;20030;-70
2022/08/12 13:30:12;;;;;;;15.18;2.83;;;24.10;52.60;;;;;;6066522;23;20026;-67
2022/08/12 13:32:39;;;;;;;4.63;1.05;;;23.90;56.60;;;;;;6066610;23;20003;-68
2022/08/12 13:35:06;;;;;;;4.70;1.10;;;23.70;55.40;;;;;;6067358;23;20007;-67
2022/08/12 13:37:32;;;;;;;2.47;1.05;;;23.60;58.80;;;;;;6068197;23;20015;-68
2022/08/12 13:39:57;;;;;;;5.32;1.50;;;23.50;60.10;;;;;;6068070;23;20003;-68
2022/08/12 13:42:23;;;;;;;6.43;1.60;;;23.40;62.10;;;;;;6068150;23;20405;-67
2022/08/12 13:44:51;;;;;;;3.85;1.05;;;23.30;63.80;;;;;;6067944;23;20011;-67
2022/08/12 13:47:20;;;;;;;2.92;1.30;;;23.20;63.20;;;;;;6068346;23;20022;-69
2022/08/12 13:49:50;;;;;;;6.75;1.27;;;23.20;64.20;;;;;;6068103;23;20015;-68
2022/08/12 13:52:17;;;;;;;3.08;1.20;;;23.20;65.20;;;;;;6068240;23;20142;-69
2022/08/12 13:54:46;;;;;;;2.83;1.50;;;23.20;65.60;;;;;;6067966;23;20015;-68
2022/08/12 13:57:14;;;;;;;2.13;1.20;;;23.20;66.90;;;;;;6068107;23;20283;-68
2022/08/12 13:59:43;;;;;;;3.50;1.58;;;23.20;66.60;;;;;;6067595;23;20026;-68
2022/08/12 14:02:12;;;;;;;6.05;2.25;;;23.20;66.70;;;;;;6067577;23;20626;-68
2022/08/12 14:04:39;;;;;;;3.60;1.42;;;23.20;67.40;;;;;;6067227;23;20334;-69
2022/08/12 14:07:05;;;;;;;5.47;1.75;;;23.20;67.60;;;;;;6066912;23;19999;-68
2022/08/12 14:10:34;;;;;;;4.00;1.45;;;23.20;67.60;;;;;;6066943;23;20070;-67
2022/08/12 14:12:20;;;;;;;2.28;1.40;;;23.20;67.80;;;;;;6066917;23;20109;-67
2022/08/12 14:14:49;;;;;;;4.60;1.60;;;23.20;67.70;;;;;;6067415;23;20007;-69
2022/08/12 14:17:16;;;;;;;2.17;1.40;;;23.30;68.20;;;;;;6067106;23;20074;-69
2022/08/12 14:20:12;;;;;;;2.25;1.15;;;23.20;68.90;;;;;;6067376;23;20086;-67
2022/08/12 14:22:27;;;;;;;3.60;1.75;;;23.30;67.70;;;;;;6066792;23;20022;-68
2022/08/12 14:24:54;;;;;;;2.72;1.65;;;23.30;67.40;;;;;;6066844;23;20007;-68
2022/08/12 14:27:19;;;;;;;3.22;1.30;;;23.30;67.70;;;;;;6066659;23;20010;-68
2022/08/12 14:29:45;;;;;;;3.22;1.65;;;23.30;67.50;;;;;;6065909;23;20085;-68
2022/08/12 14:32:11;;;;;;;4.32;1.30;;;23.40;67.10;;;;;;6066890;23;20434;-69
2022/08/12 14:34:37;;;;;;;3.30;1.25;;;23.40;66.90;;;;;;6066900;23;20011;-68
2022/08/12 14:37:05;;;;;;;3.40;1.50;;;23.40;67.10;;;;;;6066825;23;20082;-69
2022/08/12 14:39:31;;;;;;;5.22;1.35;;;23.40;67.20;;;;;;6066964;23;20011;-67
2022/08/12 14:41:57;;;;;;;9.48;1.80;;;23.50;67.30;;;;;;6067098;23;20011;-67
2022/08/12 14:44:23;;;;;;;2.65;1.48;;;23.40;67.10;;;;;;6066798;23;20026;-67
2022/08/12 14:46:56;;;;;;;4.03;1.50;;;23.50;66.60;;;;;;6063454;23;20018;-67
2022/08/12 14:49:22;;;;;;;6.18;1.42;;;23.50;66.90;;;;;;6063489;23;20077;-66
2022/08/12 14:51:48;;;;;;;2.50;1.13;;;23.50;67.00;;;;;;6064045;23;20329;-68
2022/08/12 14:54:13;;;;;;;6.30;1.42;;;23.60;67.10;;;;;;6066526;23;20078;-67
2022/08/12 14:56:42;;;;;;;3.65;1.55;;;23.60;66.80;;;;;;6066327;23;20378;-68